DXNG

Niamtougou International Airport

Niamtougou, Togo
METAR DXNG 191600Z 09005KT 060V130 9999 SCT010 30/19 Q1013 NOSIG
Observed Flight Rules
Sep-19 @ 16:00 UTC (9 hours ago) Visual Flight Rules
Wind Visibility Clouds
90° at 5 knots 10,000+ meters
  • Scattered at 1,000' AGL
Temperatures Readings
Current 30°C / 86°F
Dewpoint 19°C / 66°F
Humidity 52%
Altimeter 29.91" Hg
Pressure 1013 hPa
Elevation 343
METAR DXNG 191600Z 09005KT 060V130 9999 SCT010 30/19 Q1013 NOSIG
Observed Flight Rules
Sep-19 @ 16:00 UTC
(9 hours ago)
VFR
Wind Visibility
90° at 5 knots 10,000+ meters
Clouds
  • Scattered at 1,000' AGL
Temperature Dewpoint
30°C / 86°F 19°C / 66°F
Humidity Altimeter Pressure
52% 29.91" Hg 1013 hPa